EZY54GT LEVC-EGKK
Flight info
| Callsign | EZY54GT |
|---|---|
| Flight time | N/A |
| Altitude | 34000 |
| Route | SOPET N608 MATEX Z475 OSLAP Y90 USKAR N863 GIROM DCT AGN DCT SECHE DCT UVELI DCT CNA DCT MANAK UY110 REVTU UP88 VASUX |
| Aircraft | A320/M-SDE3FGHIRWY/LB1 |
Departure
| Time | 2026-04-29 16:58 |
|---|---|
| Airport | Valencia Airport (LEVC) |
Arrival
| Time | N/A |
|---|---|
| Airport | London Gatwick Airport (EGKK) |
| Time | Latitude | Longitude | Altitude | Speed | Heading |
|---|---|---|---|---|---|
| 2026-04-29 16:33 | 39.48986 | -0.47643 | 210 ft | 0 kts | 206° |
| 2026-04-29 16:53 | 39.48984 | -0.47645 | 209 ft | 2 kts | 215° |
| 2026-04-29 16:53 | 39.49018 | -0.47650 | 215 ft | 9 kts | 30° |
| 2026-04-29 16:53 | 39.49055 | -0.47645 | 212 ft | 8 kts | 326° |
| 2026-04-29 16:54 | 39.49048 | -0.47729 | 215 ft | 11 kts | 255° |
| 2026-04-29 16:54 | 39.49032 | -0.47818 | 215 ft | 19 kts | 256° |
| 2026-04-29 16:54 | 39.49074 | -0.48011 | 215 ft | 27 kts | 297° |
| 2026-04-29 16:54 | 39.49163 | -0.48238 | 211 ft | 29 kts | 295° |
| 2026-04-29 16:55 | 39.49251 | -0.48474 | 212 ft | 30 kts | 296° |
| 2026-04-29 16:55 | 39.49345 | -0.48718 | 217 ft | 31 kts | 297° |
| 2026-04-29 16:55 | 39.49441 | -0.48971 | 209 ft | 32 kts | 296° |
| 2026-04-29 16:55 | 39.49541 | -0.49232 | 214 ft | 33 kts | 295° |
| 2026-04-29 16:56 | 39.49644 | -0.49504 | 213 ft | 34 kts | 296° |
| 2026-04-29 16:56 | 39.49750 | -0.49783 | 214 ft | 35 kts | 297° |
| 2026-04-29 16:56 | 39.49831 | -0.50048 | 209 ft | 17 kts | 240° |
| 2026-04-29 16:56 | 39.49731 | -0.50086 | 212 ft | 13 kts | 185° |
| 2026-04-29 16:57 | 39.49659 | -0.50050 | 217 ft | 11 kts | 146° |
| 2026-04-29 16:57 | 39.49606 | -0.49936 | 215 ft | 25 kts | 117° |
| 2026-04-29 16:57 | 39.49432 | -0.49476 | 216 ft | 90 kts | 116° |
| 2026-04-29 16:57 | 39.49069 | -0.48519 | 212 ft | 144 kts | 116° |
| 2026-04-29 16:58 | 39.48559 | -0.47235 | 468 ft | 165 kts | 115° |
| 2026-04-29 16:58 | 39.48027 | -0.45932 | 1254 ft | 163 kts | 114° |
| 2026-04-29 16:58 | 39.47480 | -0.44589 | 1748 ft | 179 kts | 115° |
| 2026-04-29 16:58 | 39.46770 | -0.43139 | 2062 ft | 203 kts | 122° |
| 2026-04-29 16:59 | 39.45867 | -0.41574 | 2428 ft | 230 kts | 126° |
| 2026-04-29 16:59 | 39.44822 | -0.39866 | 2887 ft | 254 kts | 127° |
| 2026-04-29 16:59 | 39.43711 | -0.38069 | 3642 ft | 262 kts | 127° |
| 2026-04-29 16:59 | 39.42562 | -0.36201 | 4518 ft | 268 kts | 128° |
| 2026-04-29 17:00 | 39.41397 | -0.34289 | 5362 ft | 274 kts | 128° |
| 2026-04-29 17:00 | 39.40357 | -0.32207 | 6200 ft | 280 kts | 110° |
| 2026-04-29 17:00 | 39.40147 | -0.29711 | 6963 ft | 286 kts | 80° |
| 2026-04-29 17:00 | 39.40970 | -0.27379 | 7736 ft | 290 kts | 47° |
| 2026-04-29 17:01 | 39.42617 | -0.25889 | 8479 ft | 293 kts | 17° |
| 2026-04-29 17:01 | 39.44587 | -0.25190 | 9297 ft | 295 kts | 8° |
| 2026-04-29 17:01 | 39.46621 | -0.24740 | 10102 ft | 298 kts | 5° |
| 2026-04-29 17:01 | 39.48724 | -0.24383 | 10572 ft | 315 kts | 4° |
| 2026-04-29 17:02 | 39.50987 | -0.24022 | 10805 ft | 339 kts | 5° |
| 2026-04-29 17:02 | 39.53375 | -0.23618 | 11233 ft | 353 kts | 5° |
| 2026-04-29 17:02 | 39.55829 | -0.23169 | 11868 ft | 359 kts | 6° |
| 2026-04-29 17:02 | 39.58318 | -0.22686 | 12563 ft | 364 kts | 7° |
| 2026-04-29 17:03 | 39.60845 | -0.22171 | 13248 ft | 369 kts | 7° |
| 2026-04-29 17:03 | 39.63364 | -0.21643 | 13887 ft | 374 kts | 8° |
| 2026-04-29 17:03 | 39.65892 | -0.20737 | 14500 ft | 380 kts | 20° |
| 2026-04-29 17:03 | 39.68268 | -0.19184 | 15116 ft | 386 kts | 32° |
| 2026-04-29 17:04 | 39.70389 | -0.17024 | 15727 ft | 390 kts | 43° |
| 2026-04-29 17:04 | 39.72330 | -0.14536 | 16347 ft | 393 kts | 44° |
| 2026-04-29 17:04 | 39.74295 | -0.12032 | 16955 ft | 397 kts | 44° |
| 2026-04-29 17:04 | 39.76280 | -0.09515 | 17553 ft | 401 kts | 44° |
| 2026-04-29 17:05 | 39.78285 | -0.06979 | 18146 ft | 404 kts | 44° |
| 2026-04-29 17:05 | 39.80312 | -0.04407 | 18653 ft | 408 kts | 43° |
| 2026-04-29 17:05 | 39.82490 | -0.02031 | 19152 ft | 411 kts | 34° |
| 2026-04-29 17:05 | 39.84963 | -0.00163 | 19642 ft | 412 kts | 23° |
| 2026-04-29 17:06 | 39.87654 | 0.01121 | 20134 ft | 414 kts | 14° |
| 2026-04-29 17:06 | 39.90406 | 0.02126 | 20603 ft | 417 kts | 14° |
| 2026-04-29 17:06 | 39.93213 | 0.03159 | 21097 ft | 420 kts | 14° |
| 2026-04-29 17:06 | 39.96042 | 0.04206 | 21568 ft | 423 kts | 14° |
| 2026-04-29 17:07 | 39.98886 | 0.05262 | 22037 ft | 427 kts | 14° |
| 2026-04-29 17:07 | 40.01751 | 0.06327 | 22502 ft | 430 kts | 14° |
| 2026-04-29 17:07 | 40.04642 | 0.07404 | 22955 ft | 433 kts | 14° |
| 2026-04-29 17:07 | 40.07554 | 0.08491 | 23397 ft | 437 kts | 15° |
| 2026-04-29 17:08 | 40.10490 | 0.09586 | 23800 ft | 440 kts | 14° |
| 2026-04-29 17:08 | 40.13437 | 0.10682 | 24191 ft | 442 kts | 14° |
| 2026-04-29 17:08 | 40.16402 | 0.11785 | 24583 ft | 444 kts | 14° |
| 2026-04-29 17:08 | 40.19380 | 0.12898 | 24961 ft | 446 kts | 14° |
| 2026-04-29 17:09 | 40.22374 | 0.14020 | 25338 ft | 448 kts | 14° |
| 2026-04-29 17:09 | 40.25343 | 0.15133 | 25709 ft | 450 kts | 14° |
| 2026-04-29 17:09 | 40.28366 | 0.16269 | 26048 ft | 453 kts | 14° |
| 2026-04-29 17:09 | 40.31407 | 0.17415 | 26392 ft | 456 kts | 14° |
| 2026-04-29 17:10 | 40.34472 | 0.18567 | 26741 ft | 459 kts | 14° |
| 2026-04-29 17:10 | 40.37541 | 0.19718 | 27088 ft | 461 kts | 14° |
| 2026-04-29 17:10 | 40.40637 | 0.20879 | 27441 ft | 463 kts | 14° |
| 2026-04-29 17:10 | 40.43746 | 0.22043 | 27794 ft | 465 kts | 14° |
| 2026-04-29 17:11 | 40.46876 | 0.23216 | 28126 ft | 468 kts | 14° |
| 2026-04-29 17:11 | 40.50020 | 0.24396 | 28443 ft | 470 kts | 14° |
| 2026-04-29 17:11 | 40.53171 | 0.25586 | 28743 ft | 473 kts | 15° |
| 2026-04-29 17:11 | 40.56284 | 0.27037 | 29037 ft | 476 kts | 23° |
| 2026-04-29 17:12 | 40.59248 | 0.29008 | 29322 ft | 479 kts | 27° |
| 2026-04-29 17:12 | 40.62197 | 0.31056 | 29624 ft | 481 kts | 27° |
| 2026-04-29 17:12 | 40.65168 | 0.33112 | 29901 ft | 483 kts | 27° |
| 2026-04-29 17:12 | 40.67147 | 0.34478 | 30086 ft | 484 kts | 26° |
| 2026-04-29 17:13 | 40.71152 | 0.37237 | 30419 ft | 487 kts | 26° |
| 2026-04-29 17:13 | 40.74153 | 0.39305 | 30713 ft | 486 kts | 26° |
| 2026-04-29 17:13 | 40.77146 | 0.41373 | 31071 ft | 485 kts | 26° |
| 2026-04-29 17:13 | 40.80095 | 0.43417 | 31430 ft | 484 kts | 26° |
| 2026-04-29 17:14 | 40.83076 | 0.45484 | 31769 ft | 483 kts | 26° |
| 2026-04-29 17:14 | 40.86046 | 0.47546 | 32147 ft | 482 kts | 26° |
| 2026-04-29 17:14 | 40.89005 | 0.49606 | 32488 ft | 481 kts | 26° |
| 2026-04-29 17:14 | 40.91962 | 0.51667 | 32848 ft | 480 kts | 27° |
| 2026-04-29 17:15 | 40.94921 | 0.53731 | 33167 ft | 480 kts | 26° |
| 2026-04-29 17:15 | 40.97868 | 0.55791 | 33490 ft | 479 kts | 26° |
| 2026-04-29 17:15 | 41.00813 | 0.57851 | 33821 ft | 479 kts | 26° |
| 2026-04-29 17:15 | 41.03759 | 0.59911 | 33938 ft | 478 kts | 26° |
| 2026-04-29 17:16 | 41.09619 | 0.64016 | 33952 ft | 475 kts | 26° |
| 2026-04-29 17:16 | 41.15643 | 0.67541 | 33951 ft | 473 kts | 14° |
| 2026-04-29 17:17 | 41.21960 | 0.69986 | 33949 ft | 473 kts | 14° |
| 2026-04-29 17:17 | 41.28281 | 0.72447 | 33949 ft | 473 kts | 14° |
| 2026-04-29 17:18 | 41.34599 | 0.74925 | 33954 ft | 474 kts | 14° |
| 2026-04-29 17:18 | 41.40924 | 0.77413 | 33945 ft | 474 kts | 15° |
| 2026-04-29 17:19 | 41.47241 | 0.79900 | 33945 ft | 473 kts | 15° |
| 2026-04-29 17:19 | 41.53556 | 0.82374 | 33942 ft | 473 kts | 15° |
| 2026-04-29 17:20 | 41.59867 | 0.84861 | 33945 ft | 473 kts | 15° |
| 2026-04-29 17:20 | 41.66178 | 0.87363 | 33940 ft | 473 kts | 15° |
| 2026-04-29 17:21 | 41.72495 | 0.89867 | 33941 ft | 473 kts | 15° |
| 2026-04-29 17:21 | 41.78760 | 0.92347 | 33947 ft | 473 kts | 16° |
| 2026-04-29 17:22 | 41.85101 | 0.94868 | 33933 ft | 473 kts | 16° |
| 2026-04-29 17:22 | 41.91372 | 0.97368 | 33925 ft | 472 kts | 16° |
| 2026-04-29 17:23 | 41.97681 | 0.99886 | 33922 ft | 472 kts | 16° |
| 2026-04-29 17:23 | 42.03989 | 1.02406 | 33924 ft | 472 kts | 17° |
| 2026-04-29 17:24 | 42.10282 | 1.04933 | 33926 ft | 473 kts | 16° |
| 2026-04-29 17:24 | 42.16759 | 1.06217 | 33943 ft | 471 kts | 358° |
| 2026-04-29 17:25 | 42.23287 | 1.05601 | 33979 ft | 470 kts | 354° |
| 2026-04-29 17:25 | 42.29809 | 1.04905 | 33986 ft | 471 kts | 355° |
| 2026-04-29 17:26 | 42.36344 | 1.04224 | 33989 ft | 471 kts | 354° |
| 2026-04-29 17:26 | 42.42879 | 1.03530 | 33991 ft | 471 kts | 354° |
| 2026-04-29 17:27 | 42.49429 | 1.02819 | 33998 ft | 472 kts | 354° |
| 2026-04-29 17:27 | 42.55976 | 1.02091 | 33991 ft | 472 kts | 354° |
| 2026-04-29 17:28 | 42.62528 | 1.01369 | 33978 ft | 473 kts | 354° |
| 2026-04-29 17:28 | 42.69093 | 1.00648 | 33987 ft | 473 kts | 354° |
| 2026-04-29 17:29 | 42.75657 | 0.99909 | 33961 ft | 473 kts | 354° |
| 2026-04-29 17:29 | 42.81111 | 0.99303 | 33943 ft | 473 kts | 354° |
| 2026-04-29 17:30 | 42.88761 | 0.98472 | 33942 ft | 474 kts | 354° |
| 2026-04-29 17:30 | 42.95327 | 0.97766 | 33941 ft | 474 kts | 354° |
| 2026-04-29 17:31 | 43.01903 | 0.97038 | 33946 ft | 473 kts | 354° |
| 2026-04-29 17:31 | 43.08472 | 0.96303 | 33937 ft | 473 kts | 354° |
| 2026-04-29 17:32 | 43.15033 | 0.95574 | 33929 ft | 472 kts | 354° |
| 2026-04-29 17:32 | 43.21587 | 0.94852 | 33918 ft | 472 kts | 354° |
| 2026-04-29 17:33 | 43.28134 | 0.94120 | 33921 ft | 472 kts | 354° |
| 2026-04-29 17:33 | 43.34674 | 0.93387 | 33923 ft | 471 kts | 354° |
| 2026-04-29 17:34 | 43.41201 | 0.92661 | 33921 ft | 471 kts | 354° |
| 2026-04-29 17:34 | 43.47693 | 0.91939 | 33920 ft | 471 kts | 354° |
| 2026-04-29 17:35 | 43.57483 | 0.90846 | 33924 ft | 470 kts | 354° |
| 2026-04-29 17:36 | 43.64004 | 0.90104 | 33925 ft | 470 kts | 354° |
| 2026-04-29 17:36 | 43.70518 | 0.89357 | 33918 ft | 470 kts | 354° |
| 2026-04-29 17:37 | 43.77040 | 0.88611 | 33921 ft | 470 kts | 354° |
| 2026-04-29 17:37 | 43.83553 | 0.87875 | 33918 ft | 470 kts | 354° |
| 2026-04-29 17:38 | 43.89949 | 0.86305 | 33910 ft | 466 kts | 339° |
| 2026-04-29 17:38 | 43.95878 | 0.82727 | 33909 ft | 464 kts | 332° |
| 2026-04-29 17:39 | 44.01731 | 0.78951 | 33915 ft | 465 kts | 333° |
| 2026-04-29 17:39 | 44.07600 | 0.75162 | 33908 ft | 465 kts | 333° |
| 2026-04-29 17:40 | 44.13478 | 0.71353 | 34111 ft | 472 kts | 333° |
| 2026-04-29 17:40 | 44.16462 | 0.69415 | 34369 ft | 473 kts | 333° |
| 2026-04-29 17:40 | 44.19443 | 0.67476 | 34658 ft | 472 kts | 333° |
| 2026-04-29 17:40 | 44.22416 | 0.65540 | 34962 ft | 471 kts | 332° |
| 2026-04-29 17:41 | 44.24430 | 0.64228 | 35164 ft | 471 kts | 332° |